Time,TemperatureF,DewpointF,PressureIn,WindDirection,WindDirectionDegrees,WindSpeedMPH,WindSpeedGustMPH,Humidity,HourlyPrecipIn,Conditions,Clouds,dailyrainin,SoftwareType,DateUTC
2013-03-15 00:00:00,17.6,10.1,29.82,North,0,4.0,4.9,72,0.00,,,0.00,WUHU216HW,2013-03-15 08:00:00,
2013-03-15 00:05:00,17.6,10.1,29.82,NNE,23,2.5,4.7,72,0.00,,,0.00,WUHU216HW,2013-03-15 08:05:00,
2013-03-15 00:10:00,17.5,9.6,29.82,East,90,1.1,4.7,71,0.00,,,0.00,WUHU216HW,2013-03-15 08:10:00,
2013-03-15 00:15:00,17.5,9.6,29.82,NE,45,2.0,4.0,71,0.00,,,0.00,WUHU216HW,2013-03-15 08:15:00,
2013-03-15 00:20:00,17.3,9.5,29.81,NNE,23,1.1,2.5,71,0.00,,,0.00,WUHU216HW,2013-03-15 08:20:00,
2013-03-15 00:25:00,17.1,9.3,29.81,NE,45,2.0,3.8,71,0.00,,,0.00,WUHU216HW,2013-03-15 08:25:00,
2013-03-15 00:30:00,17.1,9.3,29.81,NNE,23,2.5,3.8,71,0.00,,,0.00,WUHU216HW,2013-03-15 08:30:00,
2013-03-15 00:35:00,17.1,9.3,29.81,NNE,23,3.6,5.1,71,0.00,,,0.00,WUHU216HW,2013-03-15 08:35:00,
2013-03-15 00:40:00,17.1,9.3,29.81,North,0,4.7,5.4,71,0.00,,,0.00,WUHU216HW,2013-03-15 08:40:00,
2013-03-15 00:45:00,17.3,9.5,29.81,NE,45,4.7,7.6,71,0.00,,,0.00,WUHU216HW,2013-03-15 08:45:00,
2013-03-15 00:50:00,17.3,9.5,29.81,North,0,1.8,7.6,71,0.00,,,0.00,WUHU216HW,2013-03-15 08:50:00,
2013-03-15 00:55:00,17.3,9.5,29.81,NNE,23,3.4,4.7,71,0.00,,,0.00,WUHU216HW,2013-03-15 08:55:00,
2013-03-15 01:00:00,17.1,9.3,29.81,ENE,68,3.6,3.6,71,0.00,,,0.00,WUHU216HW,2013-03-15 09:00:00,
2013-03-15 01:05:00,17.1,9.3,29.81,NNW,338,1.8,3.6,71,0.00,,,0.00,WUHU216HW,2013-03-15 09:05:00,
2013-03-15 01:10:00,16.9,9.1,29.81,East,90,1.6,3.8,71,0.00,,,0.00,WUHU216HW,2013-03-15 09:10:00,
2013-03-15 01:15:00,16.7,8.9,29.81,NNE,23,1.8,3.8,71,0.00,,,0.00,WUHU216HW,2013-03-15 09:15:00,
2013-03-15 01:20:00,16.6,8.7,29.81,NE,45,2.2,2.2,71,0.00,,,0.00,WUHU216HW,2013-03-15 09:20:00,
2013-03-15 01:25:00,16.2,8.4,29.81,ENE,68,0.7,2.2,71,0.00,,,0.00,WUHU216HW,2013-03-15 09:25:00,
2013-03-15 01:30:00,15.8,8.0,29.81,NNE,23,1.3,2.7,71,0.00,,,0.00,WUHU216HW,2013-03-15 09:30:00,
2013-03-15 01:35:00,15.5,7.8,29.81,NE,45,1.8,2.7,71,0.00,,,0.00,WUHU216HW,2013-03-15 09:35:00,
2013-03-15 01:40:00,15.3,7.6,29.81,NE,45,2.0,2.0,71,0.00,,,0.00,WUHU216HW,2013-03-15 09:40:00,
2013-03-15 01:45:00,14.9,7.2,29.80,NE,45,1.6,2.5,71,0.00,,,0.00,WUHU216HW,2013-03-15 09:45:00,
2013-03-15 01:50:00,14.8,7.0,29.80,NE,45,1.8,2.5,71,0.00,,,0.00,WUHU216HW,2013-03-15 09:50:00,
2013-03-15 01:55:00,14.6,7.2,29.80,NNE,23,1.1,2.2,72,0.00,,,0.00,WUHU216HW,2013-03-15 09:55:00,
2013-03-15 02:00:00,14.6,7.2,29.80,NE,45,0.9,1.8,72,0.00,,,0.00,WUHU216HW,2013-03-15 10:00:00,
2013-03-15 02:05:00,14.4,7.0,29.80,ESE,113,0.7,1.8,72,0.00,,,0.00,WUHU216HW,2013-03-15 10:05:00,
2013-03-15 02:10:00,14.4,7.0,29.80,East,90,1.8,1.8,72,0.00,,,0.00,WUHU216HW,2013-03-15 10:10:00,
2013-03-15 02:15:00,14.0,6.7,29.80,East,90,1.8,1.8,72,0.00,,,0.00,WUHU216HW,2013-03-15 10:15:00,
2013-03-15 02:20:00,13.9,6.5,29.80,East,90,1.8,2.5,72,0.00,,,0.00,WUHU216HW,2013-03-15 10:20:00,
2013-03-15 02:25:00,13.7,6.3,29.80,East,90,1.3,2.5,72,0.00,,,0.00,WUHU216HW,2013-03-15 10:25:00,
2013-03-15 02:30:00,13.5,6.5,29.80,East,90,1.6,2.5,73,0.00,,,0.00,WUHU216HW,2013-03-15 10:30:00,
2013-03-15 02:35:00,13.3,6.3,29.80,ENE,68,1.3,2.5,73,0.00,,,0.00,WUHU216HW,2013-03-15 10:35:00,
2013-03-15 02:40:00,13.3,6.3,29.80,ESE,113,1.1,1.8,73,0.00,,,0.00,WUHU216HW,2013-03-15 10:40:00,
2013-03-15 02:45:00,13.0,6.0,29.80,ESE,113,0.7,1.6,73,0.00,,,0.00,WUHU216HW,2013-03-15 10:45:00,
2013-03-15 02:50:00,13.0,6.2,29.79,ENE,68,1.6,2.5,74,0.00,,,0.00,WUHU216HW,2013-03-15 10:50:00,
2013-03-15 02:55:00,12.8,6.0,29.79,ESE,113,1.1,2.5,74,0.00,,,0.00,WUHU216HW,2013-03-15 10:55:00,
2013-03-15 03:00:00,12.8,6.0,29.79,ESE,113,0.7,1.8,74,0.00,,,0.00,WUHU216HW,2013-03-15 11:00:00,
2013-03-15 03:05:00,12.6,5.6,29.79,ESE,113,0.0,1.6,73,0.00,,,0.00,WUHU216HW,2013-03-15 11:05:00,
2013-03-15 03:10:00,12.6,5.6,29.79,ESE,113,0.0,0.4,73,0.00,,,0.00,WUHU216HW,2013-03-15 11:10:00,
2013-03-15 03:15:00,12.4,5.4,29.79,ESE,113,0.0,0.0,73,0.00,,,0.00,WUHU216HW,2013-03-15 11:15:00,
2013-03-15 03:20:00,12.4,5.4,29.79,ENE,68,0.2,0.2,73,0.00,,,0.00,WUHU216HW,2013-03-15 11:20:00,
2013-03-15 03:25:00,12.2,5.2,29.79,ENE,68,1.1,1.1,73,0.00,,,0.00,WUHU216HW,2013-03-15 11:25:00,
2013-03-15 03:30:00,12.1,5.1,29.79,East,90,0.7,1.1,73,0.00,,,0.00,WUHU216HW,2013-03-15 11:30:00,
2013-03-15 03:35:00,11.9,4.9,29.78,ESE,113,0.4,0.9,73,0.00,,,0.00,WUHU216HW,2013-03-15 11:35:00,
2013-03-15 03:40:00,11.9,4.9,29.78,ESE,113,0.4,0.7,73,0.00,,,0.00,WUHU216HW,2013-03-15 11:40:00,
2013-03-15 03:45:00,11.5,4.5,29.78,SE,135,0.7,0.9,73,0.00,,,0.00,WUHU216HW,2013-03-15 11:45:00,
2013-03-15 03:50:00,11.3,4.6,29.78,SSE,158,0.4,1.6,74,0.00,,,0.00,WUHU216HW,2013-03-15 11:50:00,
2013-03-15 03:55:00,11.2,4.4,29.78,SSE,158,0.0,1.6,74,0.00,,,0.00,WUHU216HW,2013-03-15 11:55:00,
2013-03-15 04:00:00,10.8,4.1,29.78,SSE,158,0.0,0.9,74,0.00,,,0.00,WUHU216HW,2013-03-15 12:00:00,
2013-03-15 04:05:00,10.6,3.9,29.78,ESE,113,1.1,1.1,74,0.00,,,0.00,WUHU216HW,2013-03-15 12:05:00,
2013-03-15 04:10:00,10.4,3.7,29.78,East,90,1.1,1.3,74,0.00,,,0.00,WUHU216HW,2013-03-15 12:10:00,
2013-03-15 04:15:00,10.3,3.5,29.77,NE,45,0.4,1.3,74,0.00,,,0.00,WUHU216HW,2013-03-15 12:15:00,
2013-03-15 04:20:00,9.9,3.2,29.77,ENE,68,1.1,1.1,74,0.00,,,0.00,WUHU216HW,2013-03-15 12:20:00,
2013-03-15 04:25:00,9.7,3.1,29.77,East,90,1.8,2.0,74,0.00,,,0.00,WUHU216HW,2013-03-15 12:25:00,
2013-03-15 04:30:00,9.7,3.3,29.77,ENE,68,0.7,2.0,75,0.00,,,0.00,WUHU216HW,2013-03-15 12:30:00,
2013-03-15 04:35:00,9.5,3.2,29.77,ESE,113,1.1,1.8,75,0.00,,,0.00,WUHU216HW,2013-03-15 12:35:00,
2013-03-15 04:40:00,9.4,3.0,29.77,NE,45,0.0,1.8,75,0.00,,,0.00,WUHU216HW,2013-03-15 12:40:00,
2013-03-15 04:45:00,9.4,3.0,29.77,WSW,248,0.0,1.1,75,0.00,,,0.00,WUHU216HW,2013-03-15 12:45:00,
2013-03-15 04:50:00,9.0,2.7,29.77,SW,225,0.9,2.9,75,0.00,,,0.00,WUHU216HW,2013-03-15 12:50:00,
2013-03-15 04:55:00,8.8,2.8,29.77,North,0,0.0,2.9,76,0.00,,,0.00,WUHU216HW,2013-03-15 12:55:00,
2013-03-15 05:00:00,8.8,2.8,29.76,ENE,68,0.9,0.9,76,0.00,,,0.00,WUHU216HW,2013-03-15 13:00:00,
2013-03-15 05:05:00,8.8,2.8,29.76,ENE,68,0.4,0.9,76,0.00,,,0.00,WUHU216HW,2013-03-15 13:05:00,
2013-03-15 05:10:00,8.6,2.6,29.76,ENE,68,0.0,0.7,76,0.00,,,0.00,WUHU216HW,2013-03-15 13:10:00,
2013-03-15 05:15:00,8.5,2.4,29.76,NNE,23,0.0,0.4,76,0.00,,,0.00,WUHU216HW,2013-03-15 13:15:00,
2013-03-15 05:20:00,8.3,2.3,29.76,East,90,0.0,0.0,76,0.00,,,0.00,WUHU216HW,2013-03-15 13:20:00,
2013-03-15 05:25:00,8.3,2.3,29.76,ESE,113,0.0,0.9,76,0.00,,,0.00,WUHU216HW,2013-03-15 13:25:00,
2013-03-15 05:30:00,8.1,2.1,29.76,ESE,113,0.0,0.9,76,0.00,,,0.00,WUHU216HW,2013-03-15 13:30:00,
2013-03-15 05:35:00,7.9,1.9,29.76,East,90,0.0,0.0,76,0.00,,,0.00,WUHU216HW,2013-03-15 13:35:00,
2013-03-15 05:40:00,7.7,1.7,29.76,ENE,68,0.0,0.0,76,0.00,,,0.00,WUHU216HW,2013-03-15 13:40:00,
2013-03-15 05:45:00,7.6,1.5,29.76,East,90,0.4,0.4,76,0.00,,,0.00,WUHU216HW,2013-03-15 13:45:00,
2013-03-15 05:50:00,7.6,1.5,29.76,East,90,0.4,0.4,76,0.00,,,0.00,WUHU216HW,2013-03-15 13:50:00,
2013-03-15 05:55:00,7.4,1.1,29.76,ENE,68,0.0,0.9,75,0.00,,,0.00,WUHU216HW,2013-03-15 13:55:00,
2013-03-15 06:00:00,7.2,0.9,29.76,ENE,68,0.0,0.9,75,0.00,,,0.00,WUHU216HW,2013-03-15 14:00:00,
2013-03-15 06:05:00,6.8,0.5,29.76,ESE,113,0.9,0.9,75,0.00,,,0.00,WUHU216HW,2013-03-15 14:05:00,
2013-03-15 06:10:00,6.8,0.5,29.76,ESE,113,0.0,0.9,75,0.00,,,0.00,WUHU216HW,2013-03-15 14:10:00,
2013-03-15 06:15:00,6.7,0.4,29.76,ESE,113,0.0,0.2,75,0.00,,,0.00,WUHU216HW,2013-03-15 14:15:00,
2013-03-15 06:20:00,6.5,0.2,29.76,East,90,0.0,0.2,75,0.00,,,0.00,WUHU216HW,2013-03-15 14:20:00,
2013-03-15 06:25:00,6.3,0.0,29.76,NE,45,0.0,0.7,75,0.00,,,0.00,WUHU216HW,2013-03-15 14:25:00,
2013-03-15 06:30:00,6.1,0.1,29.75,NE,45,0.0,0.7,76,0.00,,,0.00,WUHU216HW,2013-03-15 14:30:00,
2013-03-15 06:35:00,6.1,0.1,29.75,North,0,0.0,0.0,76,0.00,,,0.00,WUHU216HW,2013-03-15 14:35:00,
2013-03-15 06:40:00,5.9,-0.1,29.75,North,0,0.0,0.0,76,0.00,,,0.00,WUHU216HW,2013-03-15 14:40:00,
2013-03-15 06:45:00,5.6,-0.4,29.75,WNW,293,0.0,0.0,76,0.00,,,0.00,WUHU216HW,2013-03-15 14:45:00,
2013-03-15 06:50:00,5.6,-0.4,29.75,ENE,68,0.4,0.7,76,0.00,,,0.00,WUHU216HW,2013-03-15 14:50:00,
2013-03-15 06:55:00,5.4,-0.6,29.75,ENE,68,0.0,0.7,76,0.00,,,0.00,WUHU216HW,2013-03-15 14:55:00,
2013-03-15 07:00:00,5.2,-0.8,29.75,East,90,0.4,0.9,76,0.00,,,0.00,WUHU216HW,2013-03-15 15:00:00,
2013-03-15 07:05:00,5.0,-1.0,29.75,East,90,0.0,0.9,76,0.00,,,0.00,WUHU216HW,2013-03-15 15:05:00,
2013-03-15 07:10:00,4.9,-1.2,29.75,East,90,0.0,0.2,76,0.00,,,0.00,WUHU216HW,2013-03-15 15:10:00,
2013-03-15 07:15:00,4.7,-1.3,29.75,ESE,113,0.0,0.0,76,0.00,,,0.00,WUHU216HW,2013-03-15 15:15:00,
2013-03-15 07:20:00,4.7,-1.3,29.75,ESE,113,0.4,1.1,76,0.00,,,0.00,WUHU216HW,2013-03-15 15:20:00,
2013-03-15 07:25:00,4.7,-1.3,29.75,East,90,0.9,1.1,76,0.00,,,0.00,WUHU216HW,2013-03-15 15:25:00,
2013-03-15 07:30:00,4.5,-1.5,29.75,ESE,113,0.7,1.1,76,0.00,,,0.00,WUHU216HW,2013-03-15 15:30:00,
2013-03-15 07:35:00,4.3,-1.6,29.75,ESE,113,1.1,1.1,76,0.00,,,0.00,WUHU216HW,2013-03-15 15:35:00,
2013-03-15 07:40:00,4.1,-1.8,29.75,ESE,113,0.0,1.1,76,0.00,,,0.00,WUHU216HW,2013-03-15 15:40:00,
2013-03-15 07:45:00,4.0,-2.0,29.75,East,90,0.4,1.1,76,0.00,,,0.00,WUHU216HW,2013-03-15 15:45:00,
2013-03-15 07:50:00,4.0,-2.0,29.74,East,90,0.4,0.7,76,0.00,,,0.00,WUHU216HW,2013-03-15 15:50:00,
2013-03-15 07:55:00,4.0,-2.0,29.74,ENE,68,0.2,0.9,76,0.00,,,0.00,WUHU216HW,2013-03-15 15:55:00,
2013-03-15 08:00:00,4.0,-2.0,29.74,ENE,68,0.2,0.9,76,0.00,,,0.00,WUHU216HW,2013-03-15 16:00:00,
2013-03-15 08:05:00,4.0,-2.0,29.74,ENE,68,0.4,0.4,76,0.00,,,0.00,WUHU216HW,2013-03-15 16:05:00,
2013-03-15 08:10:00,3.8,-2.1,29.74,ESE,113,0.7,0.7,76,0.00,,,0.00,WUHU216HW,2013-03-15 16:10:00,
2013-03-15 08:15:00,3.8,-2.1,29.74,ESE,113,0.2,1.1,76,0.00,,,0.00,WUHU216HW,2013-03-15 16:15:00,
2013-03-15 08:20:00,3.6,-2.3,29.74,ESE,113,0.0,1.1,76,0.00,,,0.00,WUHU216HW,2013-03-15 16:20:00,
2013-03-15 08:25:00,3.2,-2.7,29.74,NW,315,1.1,1.1,76,0.00,,,0.00,WUHU216HW,2013-03-15 16:25:00,
2013-03-15 08:30:00,3.2,-2.7,29.74,NW,315,0.0,1.1,76,0.00,,,0.00,WUHU216HW,2013-03-15 16:30:00,
2013-03-15 08:35:00,3.2,-2.7,29.74,North,0,0.0,0.7,76,0.00,,,0.00,WUHU216HW,2013-03-15 16:35:00,
2013-03-15 08:40:00,3.2,-2.7,29.74,North,0,0.0,0.0,76,0.00,,,0.00,WUHU216HW,2013-03-15 16:40:00,
2013-03-15 08:45:00,3.4,-2.2,29.74,North,0,0.0,0.0,77,0.00,,,0.00,WUHU216HW,2013-03-15 16:45:00,
2013-03-15 08:50:00,3.8,-1.9,29.74,North,0,0.0,0.0,77,0.00,,,0.00,WUHU216HW,2013-03-15 16:50:00,
2013-03-15 08:55:00,3.8,-2.1,29.74,North,0,0.0,0.0,76,0.00,,,0.00,WUHU216HW,2013-03-15 16:55:00,
2013-03-15 09:00:00,3.6,-2.3,29.73,North,0,0.0,0.0,76,0.00,,,0.00,WUHU216HW,2013-03-15 17:00:00,
2013-03-15 09:05:00,3.6,-2.3,29.74,North,0,0.0,0.0,76,0.00,,,0.00,WUHU216HW,2013-03-15 17:05:00,
2013-03-15 09:10:00,3.6,-2.3,29.73,North,0,0.0,0.0,76,0.00,,,0.00,WUHU216HW,2013-03-15 17:10:00,
2013-03-15 09:15:00,3.6,-2.1,29.74,North,0,0.0,0.0,77,0.00,,,0.00,WUHU216HW,2013-03-15 17:15:00,
2013-03-15 09:20:00,3.6,-2.1,29.74,North,0,0.0,0.0,77,0.00,,,0.00,WUHU216HW,2013-03-15 17:20:00,
2013-03-15 09:25:00,3.8,-1.6,29.73,North,0,0.0,0.0,78,0.00,,,0.00,WUHU216HW,2013-03-15 17:25:00,
2013-03-15 09:30:00,4.1,-1.2,29.74,North,0,0.0,0.0,78,0.00,,,0.00,WUHU216HW,2013-03-15 17:30:00,
2013-03-15 09:35:00,4.7,-0.7,29.74,North,0,0.0,0.0,78,0.00,,,0.00,WUHU216HW,2013-03-15 17:35:00,
2013-03-15 09:40:00,5.0,-0.3,29.75,North,0,0.0,0.0,78,0.00,,,0.00,WUHU216HW,2013-03-15 17:40:00,
2013-03-15 09:45:00,5.4,0.0,29.75,North,0,0.0,0.0,78,0.00,,,0.00,WUHU216HW,2013-03-15 17:45:00,
2013-03-15 09:50:00,6.1,0.7,29.75,North,0,0.0,0.0,78,0.00,,,0.00,WUHU216HW,2013-03-15 17:50:00,
2013-03-15 09:55:00,6.8,1.7,29.75,SE,135,0.0,0.0,79,0.00,,,0.00,WUHU216HW,2013-03-15 17:55:00,
2013-03-15 10:00:00,7.4,2.3,29.75,SE,135,0.0,0.0,79,0.00,,,0.00,WUHU216HW,2013-03-15 18:00:00,
2013-03-15 10:05:00,7.7,2.6,29.75,SSE,158,0.7,0.7,79,0.00,,,0.00,WUHU216HW,2013-03-15 18:05:00,
2013-03-15 10:10:00,8.1,3.0,29.76,SE,135,0.0,0.7,79,0.00,,,0.00,WUHU216HW,2013-03-15 18:10:00,
2013-03-15 10:15:00,8.8,3.7,29.75,SE,135,0.0,0.7,79,0.00,,,0.00,WUHU216HW,2013-03-15 18:15:00,
2013-03-15 10:20:00,9.5,4.6,29.75,North,0,0.0,0.0,80,0.00,,,0.00,WUHU216HW,2013-03-15 18:20:00,
2013-03-15 10:25:00,10.4,5.4,29.75,SE,135,0.0,0.0,80,0.00,,,0.00,WUHU216HW,2013-03-15 18:25:00,
2013-03-15 10:30:00,11.0,6.2,29.74,South,180,0.4,0.7,81,0.00,,,0.00,WUHU216HW,2013-03-15 18:30:00,
2013-03-15 10:35:00,11.9,7.1,29.74,West,270,0.9,0.9,81,0.00,,,0.00,WUHU216HW,2013-03-15 18:35:00,
2013-03-15 10:40:00,12.8,8.0,29.74,West,270,0.7,1.1,81,0.00,,,0.00,WUHU216HW,2013-03-15 18:40:00,
2013-03-15 10:45:00,13.7,8.6,29.74,West,270,1.1,1.1,80,0.00,,,0.00,WUHU216HW,2013-03-15 18:45:00,
2013-03-15 10:50:00,14.4,9.4,29.74,WNW,293,0.7,1.1,80,0.00,,,0.00,WUHU216HW,2013-03-15 18:50:00,
2013-03-15 10:55:00,14.8,9.5,29.74,North,0,0.0,1.1,79,0.00,,,0.00,WUHU216HW,2013-03-15 18:55:00,
2013-03-15 11:00:00,15.7,10.4,29.73,West,270,1.1,1.1,79,0.00,,,0.00,WUHU216HW,2013-03-15 19:00:00,
2013-03-15 11:05:00,16.2,10.5,29.74,North,0,0.0,1.1,78,0.00,,,0.00,WUHU216HW,2013-03-15 19:05:00,
2013-03-15 11:10:00,16.9,11.2,29.73,North,0,0.0,1.1,78,0.00,,,0.00,WUHU216HW,2013-03-15 19:10:00,
2013-03-15 11:15:00,17.8,11.2,29.73,North,0,0.0,0.0,75,0.00,,,0.00,WUHU216HW,2013-03-15 19:15:00,
2013-03-15 11:20:00,18.9,12.2,29.73,North,0,0.0,0.0,75,0.00,,,0.00,WUHU216HW,2013-03-15 19:20:00,
2013-03-15 11:25:00,19.3,12.5,29.73,North,0,0.0,0.0,75,0.00,,,0.00,WUHU216HW,2013-03-15 19:25:00,
2013-03-15 11:30:00,20.0,13.0,29.73,North,0,0.0,0.0,74,0.00,,,0.00,WUHU216HW,2013-03-15 19:30:00,
2013-03-15 11:35:00,20.3,13.3,29.73,North,0,0.0,0.0,74,0.00,,,0.00,WUHU216HW,2013-03-15 19:35:00,
2013-03-15 11:40:00,20.7,13.1,29.73,North,0,0.0,0.0,72,0.00,,,0.00,WUHU216HW,2013-03-15 19:40:00,
2013-03-15 11:45:00,21.2,13.6,29.73,North,0,0.0,0.0,72,0.00,,,0.00,WUHU216HW,2013-03-15 19:45:00,
2013-03-15 11:50:00,21.8,13.1,29.73,North,0,0.0,0.0,69,0.00,,,0.00,WUHU216HW,2013-03-15 19:50:00,
2013-03-15 11:55:00,22.1,13.5,29.73,North,0,0.0,0.0,69,0.00,,,0.00,WUHU216HW,2013-03-15 19:55:00,
2013-03-15 12:00:00,22.7,14.0,29.73,North,0,0.0,0.0,69,0.00,,,0.00,WUHU216HW,2013-03-15 20:00:00,
2013-03-15 12:05:00,22.9,13.9,29.73,North,0,0.0,0.0,68,0.00,,,0.00,WUHU216HW,2013-03-15 20:05:00,
2013-03-15 12:10:00,23.2,13.9,29.73,North,0,0.0,0.0,67,0.00,,,0.00,WUHU216HW,2013-03-15 20:10:00,
2013-03-15 12:15:00,23.8,14.1,29.73,North,0,0.0,0.0,66,0.00,,,0.00,WUHU216HW,2013-03-15 20:15:00,
2013-03-15 12:20:00,24.1,14.3,29.73,North,0,0.0,0.0,66,0.00,,,0.00,WUHU216HW,2013-03-15 20:20:00,
2013-03-15 12:25:00,24.8,15.0,29.72,North,0,0.0,0.0,66,0.00,,,0.00,WUHU216HW,2013-03-15 20:25:00,
2013-03-15 12:30:00,25.4,15.6,29.72,North,0,0.0,0.0,66,0.00,,,0.00,WUHU216HW,2013-03-15 20:30:00,
2013-03-15 12:35:00,25.7,14.9,29.72,North,0,0.0,0.0,63,0.00,,,0.00,WUHU216HW,2013-03-15 20:35:00,
2013-03-15 12:40:00,26.1,15.5,29.72,North,0,0.0,0.0,64,0.00,,,0.00,WUHU216HW,2013-03-15 20:40:00,
2013-03-15 12:45:00,26.3,15.3,29.72,North,0,0.0,0.0,63,0.00,,,0.00,WUHU216HW,2013-03-15 20:45:00,
2013-03-15 12:50:00,26.3,14.6,29.72,North,0,0.0,0.0,61,0.00,,,0.00,WUHU216HW,2013-03-15 20:50:00,
2013-03-15 12:55:00,26.6,14.9,29.72,North,0,0.0,0.0,61,0.00,,,0.00,WUHU216HW,2013-03-15 20:55:00,
2013-03-15 13:00:00,27.0,15.7,29.71,North,0,0.0,0.0,62,0.00,,,0.00,WUHU216HW,2013-03-15 21:00:00,
2013-03-15 13:05:00,27.7,16.4,29.72,North,0,0.0,0.0,62,0.00,,,0.00,WUHU216HW,2013-03-15 21:05:00,
2013-03-15 13:10:00,28.1,16.4,29.71,North,0,0.0,0.0,61,0.00,,,0.00,WUHU216HW,2013-03-15 21:10:00,
2013-03-15 13:15:00,28.4,16.4,29.72,North,0,0.0,0.0,60,0.00,,,0.00,WUHU216HW,2013-03-15 21:15:00,
2013-03-15 13:20:00,28.6,16.1,29.71,North,0,0.0,0.0,59,0.00,,,0.00,WUHU216HW,2013-03-15 21:20:00,
2013-03-15 13:25:00,28.6,15.8,29.71,North,0,0.0,0.0,58,0.00,,,0.00,WUHU216HW,2013-03-15 21:25:00,
2013-03-15 13:30:00,29.0,15.7,29.71,North,0,0.0,0.0,57,0.00,,,0.00,WUHU216HW,2013-03-15 21:30:00,
2013-03-15 13:35:00,29.2,15.4,29.71,North,0,0.0,0.0,56,0.00,,,0.00,WUHU216HW,2013-03-15 21:35:00,
2013-03-15 13:40:00,29.7,15.8,29.71,North,0,0.0,0.0,56,0.00,,,0.00,WUHU216HW,2013-03-15 21:40:00,
2013-03-15 13:45:00,30.2,16.4,29.71,North,0,0.0,0.0,56,0.00,,,0.00,WUHU216HW,2013-03-15 21:45:00,
2013-03-15 13:50:00,30.2,14.3,29.71,North,0,0.0,0.0,51,0.00,,,0.00,WUHU216HW,2013-03-15 21:50:00,
2013-03-15 13:55:00,30.2,15.5,29.71,North,0,0.0,0.0,54,0.00,,,0.00,WUHU216HW,2013-03-15 21:55:00,
2013-03-15 14:00:00,30.8,16.0,29.71,North,0,0.0,0.0,54,0.00,,,0.00,WUHU216HW,2013-03-15 22:00:00,
2013-03-15 14:05:00,30.6,15.0,29.72,North,0,0.0,0.0,52,0.00,,,0.00,WUHU216HW,2013-03-15 22:05:00,
2013-03-15 14:10:00,30.8,15.2,29.71,North,0,0.0,0.0,52,0.00,,,0.00,WUHU216HW,2013-03-15 22:10:00,
2013-03-15 14:15:00,31.3,14.3,29.71,North,0,0.0,0.0,49,0.00,,,0.00,WUHU216HW,2013-03-15 22:15:00,
2013-03-15 14:20:00,31.5,15.4,29.71,North,0,0.0,0.0,51,0.00,,,0.00,WUHU216HW,2013-03-15 22:20:00,
2013-03-15 14:25:00,32.0,16.4,29.71,North,0,0.0,0.0,52,0.00,,,0.00,WUHU216HW,2013-03-15 22:25:00,
2013-03-15 14:30:00,32.2,15.7,29.71,North,0,0.0,0.0,50,0.00,,,0.00,WUHU216HW,2013-03-15 22:30:00,
2013-03-15 14:35:00,32.6,16.4,29.71,North,0,0.0,0.0,51,0.00,,,0.00,WUHU216HW,2013-03-15 22:35:00,
2013-03-15 14:40:00,33.1,17.3,29.71,North,0,0.0,0.0,52,0.00,,,0.00,WUHU216HW,2013-03-15 22:40:00,
2013-03-15 14:45:00,33.1,14.4,29.71,North,0,0.0,0.0,46,0.00,,,0.00,WUHU216HW,2013-03-15 22:45:00,
2013-03-15 14:50:00,32.2,11.6,29.71,North,0,0.0,0.0,42,0.00,,,0.00,WUHU216HW,2013-03-15 22:50:00,
2013-03-15 14:55:00,32.4,11.3,29.71,North,0,0.0,0.0,41,0.00,,,0.00,WUHU216HW,2013-03-15 22:55:00,
2013-03-15 15:00:00,32.8,11.6,29.71,North,0,0.0,0.0,41,0.00,,,0.00,WUHU216HW,2013-03-15 23:00:00,
2013-03-15 15:05:00,32.9,12.8,29.71,North,0,0.0,0.0,43,0.00,,,0.00,WUHU216HW,2013-03-15 23:05:00,
2013-03-15 15:10:00,33.5,13.8,29.71,North,0,0.0,0.0,44,0.00,,,0.00,WUHU216HW,2013-03-15 23:10:00,
2013-03-15 15:15:00,33.5,13.8,29.71,North,0,0.0,0.0,44,0.00,,,0.00,WUHU216HW,2013-03-15 23:15:00,
2013-03-15 15:20:00,33.1,9.6,29.71,North,0,0.0,0.0,37,0.00,,,0.00,WUHU216HW,2013-03-15 23:20:00,
2013-03-15 15:25:00,33.1,12.4,29.71,North,0,0.0,0.0,42,0.00,,,0.00,WUHU216HW,2013-03-15 23:25:00,
2013-03-15 15:30:00,33.5,12.2,29.71,North,0,0.0,0.0,41,0.00,,,0.00,WUHU216HW,2013-03-15 23:30:00,
2013-03-15 15:35:00,33.5,12.2,29.71,North,0,0.0,0.0,41,0.00,,,0.00,WUHU216HW,2013-03-15 23:35:00,
2013-03-15 15:40:00,34.0,11.6,29.70,North,0,0.0,0.0,39,0.00,,,0.00,WUHU216HW,2013-03-15 23:40:00,
2013-03-15 15:45:00,33.7,11.3,29.70,North,0,0.0,0.0,39,0.00,,,0.00,WUHU216HW,2013-03-15 23:45:00,
2013-03-15 15:50:00,34.2,13.4,29.70,North,0,0.0,0.0,42,0.00,,,0.00,WUHU216HW,2013-03-15 23:50:00,
2013-03-15 15:55:00,34.9,14.6,29.71,North,0,0.0,0.0,43,0.00,,,0.00,WUHU216HW,2013-03-15 23:55:00,
2013-03-15 16:00:00,35.5,14.6,29.71,North,0,0.0,0.0,42,0.00,,,0.00,WUHU216HW,2013-03-16 00:00:00,
2013-03-15 16:05:00,35.3,14.4,29.71,North,0,0.0,0.0,42,0.00,,,0.00,WUHU216HW,2013-03-16 00:05:00,
2013-03-15 16:10:00,35.1,12.5,29.71,NNW,338,3.4,9.2,39,0.00,,,0.00,WUHU216HW,2013-03-16 00:10:00,
2013-03-15 16:15:00,34.6,10.8,29.71,NNW,338,3.4,9.2,37,0.00,,,0.00,WUHU216HW,2013-03-16 00:15:00,
2013-03-15 16:20:00,34.7,12.3,29.71,North,0,2.5,6.0,39,0.00,,,0.00,WUHU216HW,2013-03-16 00:20:00,
2013-03-15 16:25:00,35.5,14.6,29.71,NNE,23,7.6,10.7,42,0.00,,,0.00,WUHU216HW,2013-03-16 00:25:00,
2013-03-15 16:30:00,36.5,12.5,29.71,NNE,23,7.6,10.7,37,0.00,,,0.00,WUHU216HW,2013-03-16 00:30:00,
2013-03-15 16:35:00,37.1,9.2,29.71,NNW,338,5.4,8.1,31,0.00,,,0.00,WUHU216HW,2013-03-16 00:35:00,
2013-03-15 16:40:00,36.9,9.6,29.70,North,0,4.7,6.5,32,0.00,,,0.00,WUHU216HW,2013-03-16 00:40:00,
2013-03-15 16:45:00,39.4,14.5,29.71,North,0,3.1,5.4,36,0.00,,,0.00,WUHU216HW,2013-03-16 00:45:00,
2013-03-15 16:50:00,42.5,17.8,29.71,ENE,68,1.8,7.6,37,0.00,,,0.00,WUHU216HW,2013-03-16 00:50:00,
2013-03-15 16:55:00,42.8,14.9,29.71,North,0,2.7,7.6,32,0.00,,,0.00,WUHU216HW,2013-03-16 00:55:00,
2013-03-15 17:00:00,39.4,13.9,29.71,NE,45,4.3,6.0,35,0.00,,,0.00,WUHU216HW,2013-03-16 01:00:00,
2013-03-15 17:05:00,38.5,10.4,29.71,NNW,338,5.4,6.0,31,0.00,,,0.00,WUHU216HW,2013-03-16 01:05:00,
2013-03-15 17:10:00,38.7,13.2,29.72,North,0,4.0,5.4,35,0.00,,,0.00,WUHU216HW,2013-03-16 01:10:00,
2013-03-15 17:15:00,39.6,10.8,29.72,NW,315,3.6,5.1,30,0.00,,,0.00,WUHU216HW,2013-03-16 01:15:00,
2013-03-15 17:20:00,39.4,9.7,29.72,NNW,338,2.0,8.1,29,0.00,,,0.00,WUHU216HW,2013-03-16 01:20:00,
2013-03-15 17:25:00,39.1,9.4,29.72,NNW,338,4.0,8.1,29,0.00,,,0.00,WUHU216HW,2013-03-16 01:25:00,
2013-03-15 17:30:00,40.3,12.1,29.72,North,0,4.0,5.4,31,0.00,,,0.00,WUHU216HW,2013-03-16 01:30:00,
2013-03-15 17:35:00,41.9,14.8,29.72,NNW,338,2.5,6.3,33,0.00,,,0.00,WUHU216HW,2013-03-16 01:35:00,
2013-03-15 17:40:00,37.4,7.0,29.72,NNW,338,3.4,6.9,28,0.00,,,0.00,WUHU216HW,2013-03-16 01:40:00,
2013-03-15 17:45:00,35.1,7.4,29.72,NNW,338,4.0,8.5,31,0.00,,,0.00,WUHU216HW,2013-03-16 01:45:00,
2013-03-15 17:50:00,34.7,9.0,29.72,North,0,2.2,8.5,34,0.00,,,0.00,WUHU216HW,2013-03-16 01:50:00,
2013-03-15 17:55:00,34.2,7.9,29.72,North,0,4.3,5.6,33,0.00,,,0.00,WUHU216HW,2013-03-16 01:55:00,
2013-03-15 18:00:00,33.8,7.7,29.72,NNE,23,6.3,6.3,33,0.00,,,0.00,WUHU216HW,2013-03-16 02:00:00,
2013-03-15 18:05:00,33.7,8.7,29.72,North,0,2.0,6.3,35,0.00,,,0.00,WUHU216HW,2013-03-16 02:05:00,
2013-03-15 18:10:00,33.7,6.8,29.72,North,0,4.0,6.3,32,0.00,,,0.00,WUHU216HW,2013-03-16 02:10:00,
2013-03-15 18:15:00,35.1,11.3,29.72,North,0,3.1,7.2,37,0.00,,,0.00,WUHU216HW,2013-03-16 02:15:00,
2013-03-15 18:20:00,36.2,12.9,29.72,NE,45,3.1,7.2,38,0.00,,,0.00,WUHU216HW,2013-03-16 02:20:00,
2013-03-15 18:25:00,34.7,8.4,29.72,North,0,2.5,5.4,33,0.00,,,0.00,WUHU216HW,2013-03-16 02:25:00,
2013-03-15 18:30:00,33.5,7.3,29.73,North,0,3.1,5.4,33,0.00,,,0.00,WUHU216HW,2013-03-16 02:30:00,
2013-03-15 18:35:00,32.9,8.1,29.73,North,0,0.0,4.7,35,0.00,,,0.00,WUHU216HW,2013-03-16 02:35:00,
2013-03-15 18:40:00,32.8,7.9,29.73,North,0,0.0,3.1,35,0.00,,,0.00,WUHU216HW,2013-03-16 02:40:00,
2013-03-15 18:45:00,32.8,7.9,29.73,North,0,0.0,0.0,35,0.00,,,0.00,WUHU216HW,2013-03-16 02:45:00,
2013-03-15 18:50:00,32.6,6.5,29.73,North,0,0.0,0.0,33,0.00,,,0.00,WUHU216HW,2013-03-16 02:50:00,
2013-03-15 18:55:00,32.2,6.9,29.73,North,0,0.0,0.0,34,0.00,,,0.00,WUHU216HW,2013-03-16 02:55:00,
2013-03-15 19:00:00,32.2,8.7,29.73,North,0,0.0,0.0,37,0.00,,,0.00,WUHU216HW,2013-03-16 03:00:00,
2013-03-15 19:05:00,32.4,9.6,29.73,North,0,0.0,0.0,38,0.00,,,0.00,WUHU216HW,2013-03-16 03:05:00,
2013-03-15 19:10:00,32.9,10.0,29.73,North,0,0.0,0.0,38,0.00,,,0.00,WUHU216HW,2013-03-16 03:10:00,
2013-03-15 19:15:00,33.3,11.0,29.73,North,0,0.0,0.0,39,0.00,,,0.00,WUHU216HW,2013-03-16 03:15:00,
2013-03-15 19:20:00,32.8,10.4,29.73,North,0,0.0,0.0,39,0.00,,,0.00,WUHU216HW,2013-03-16 03:20:00,
2013-03-15 19:25:00,32.2,10.6,29.73,North,0,0.0,0.0,40,0.00,,,0.00,WUHU216HW,2013-03-16 03:25:00,
2013-03-15 19:30:00,32.0,10.4,29.73,North,0,0.0,0.0,40,0.00,,,0.00,WUHU216HW,2013-03-16 03:30:00,
2013-03-15 19:35:00,31.3,9.8,29.73,North,0,0.0,0.0,40,0.00,,,0.00,WUHU216HW,2013-03-16 03:35:00,
2013-03-15 19:40:00,30.6,9.6,29.73,North,0,0.0,0.0,41,0.00,,,0.00,WUHU216HW,2013-03-16 03:40:00,
2013-03-15 19:45:00,29.9,9.6,29.73,North,0,0.0,0.0,42,0.00,,,0.00,WUHU216HW,2013-03-16 03:45:00,
2013-03-15 19:50:00,29.2,9.4,29.73,NE,45,1.6,1.6,43,0.00,,,0.00,WUHU216HW,2013-03-16 03:50:00,
2013-03-15 19:55:00,28.4,8.7,29.73,ENE,68,1.8,1.8,43,0.00,,,0.00,WUHU216HW,2013-03-16 03:55:00,
2013-03-15 20:00:00,28.1,8.9,29.74,NE,45,2.9,2.9,44,0.00,,,0.00,WUHU216HW,2013-03-16 04:00:00,
2013-03-15 20:05:00,27.4,8.2,29.74,NE,45,1.1,2.9,44,0.00,,,0.00,WUHU216HW,2013-03-16 04:05:00,
2013-03-15 20:10:00,26.8,8.2,29.74,NE,45,2.2,3.4,45,0.00,,,0.00,WUHU216HW,2013-03-16 04:10:00,
2013-03-15 20:15:00,26.3,7.7,29.74,NNE,23,1.3,4.0,45,0.00,,,0.00,WUHU216HW,2013-03-16 04:15:00,
2013-03-15 20:20:00,25.9,7.4,29.74,NE,45,0.9,4.0,45,0.00,,,0.00,WUHU216HW,2013-03-16 04:20:00,
2013-03-15 20:25:00,25.6,7.6,29.75,NE,45,1.1,1.8,46,0.00,,,0.00,WUHU216HW,2013-03-16 04:25:00,
2013-03-15 20:30:00,25.2,7.7,29.75,ENE,68,0.0,1.3,47,0.00,,,0.00,WUHU216HW,2013-03-16 04:30:00,
2013-03-15 20:35:00,24.7,7.2,29.75,East,90,0.0,1.1,47,0.00,,,0.00,WUHU216HW,2013-03-16 04:35:00,
2013-03-15 20:40:00,24.1,6.8,29.75,East,90,0.0,0.0,47,0.00,,,0.00,WUHU216HW,2013-03-16 04:40:00,
2013-03-15 20:45:00,23.6,6.8,29.75,East,90,0.4,1.8,48,0.00,,,0.00,WUHU216HW,2013-03-16 04:45:00,
2013-03-15 20:50:00,23.0,6.8,29.75,ENE,68,0.0,1.8,49,0.00,,,0.00,WUHU216HW,2013-03-16 04:50:00,
2013-03-15 20:55:00,22.7,6.4,29.75,ENE,68,0.0,0.4,49,0.00,,,0.00,WUHU216HW,2013-03-16 04:55:00,
2013-03-15 21:00:00,22.1,6.3,29.75,ENE,68,0.7,1.1,50,0.00,,,0.00,WUHU216HW,2013-03-16 05:00:00,
2013-03-15 21:05:00,21.8,5.9,29.75,North,0,0.0,1.1,50,0.00,,,0.00,WUHU216HW,2013-03-16 05:05:00,
2013-03-15 21:10:00,21.4,5.6,29.76,NW,315,0.7,0.7,50,0.00,,,0.00,WUHU216HW,2013-03-16 05:10:00,
2013-03-15 21:15:00,21.2,5.9,29.76,NW,315,0.7,0.7,51,0.00,,,0.00,WUHU216HW,2013-03-16 05:15:00,
2013-03-15 21:20:00,20.9,5.5,29.76,North,0,0.7,1.1,51,0.00,,,0.00,WUHU216HW,2013-03-16 05:20:00,
2013-03-15 21:25:00,20.5,5.6,29.76,NE,45,1.3,1.3,52,0.00,,,0.00,WUHU216HW,2013-03-16 05:25:00,
2013-03-15 21:30:00,20.2,5.2,29.76,East,90,1.1,1.3,52,0.00,,,0.00,WUHU216HW,2013-03-16 05:30:00,
2013-03-15 21:35:00,19.6,5.1,29.76,North,0,0.0,1.1,53,0.00,,,0.00,WUHU216HW,2013-03-16 05:35:00,
2013-03-15 21:40:00,19.3,5.2,29.76,North,0,0.0,1.1,54,0.00,,,0.00,WUHU216HW,2013-03-16 05:40:00,
2013-03-15 21:45:00,18.9,4.5,29.76,North,0,0.0,0.0,53,0.00,,,0.00,WUHU216HW,2013-03-16 05:45:00,
2013-03-15 21:51:00,18.5,4.6,29.76,North,0,0.0,0.0,54,0.00,,,0.00,WUHU216HW,2013-03-16 05:51:00,
2013-03-15 21:56:00,18.0,4.1,29.76,North,0,0.0,0.0,54,0.00,,,0.00,WUHU216HW,2013-03-16 05:56:00,
2013-03-15 22:01:00,17.6,4.1,29.77,North,0,0.0,0.0,55,0.00,,,0.00,WUHU216HW,2013-03-16 06:01:00,
2013-03-15 22:06:00,17.3,3.8,29.77,North,0,0.0,0.0,55,0.00,,,0.00,WUHU216HW,2013-03-16 06:06:00,
2013-03-15 22:11:00,16.9,3.9,29.77,North,0,0.0,0.0,56,0.00,,,0.00,WUHU216HW,2013-03-16 06:11:00,
2013-03-15 22:16:00,16.6,3.9,29.78,North,0,0.0,0.0,57,0.00,,,0.00,WUHU216HW,2013-03-16 06:16:00,
2013-03-15 22:21:00,16.2,3.5,29.78,North,0,0.0,0.0,57,0.00,,,0.00,WUHU216HW,2013-03-16 06:21:00,
2013-03-15 22:26:00,15.8,3.2,29.78,North,0,0.0,0.0,57,0.00,,,0.00,WUHU216HW,2013-03-16 06:26:00,
2013-03-15 22:32:00,15.7,3.4,29.78,North,0,0.0,0.0,58,0.00,,,0.00,WUHU216HW,2013-03-16 06:32:00,
2013-03-15 22:37:00,15.5,3.3,29.78,North,0,0.0,0.0,58,0.00,,,0.00,WUHU216HW,2013-03-16 06:37:00,
2013-03-15 22:42:00,15.1,3.3,29.79,North,0,0.0,0.0,59,0.00,,,0.00,WUHU216HW,2013-03-16 06:42:00,
2013-03-15 22:47:00,14.8,2.6,29.79,North,0,0.0,0.0,58,0.00,,,0.00,WUHU216HW,2013-03-16 06:47:00,
2013-03-15 22:52:00,14.4,2.3,29.79,North,0,0.0,0.0,58,0.00,,,0.00,WUHU216HW,2013-03-16 06:52:00,
2013-03-15 22:57:00,14.0,2.4,29.79,East,90,0.0,0.4,59,0.00,,,0.00,WUHU216HW,2013-03-16 06:57:00,
2013-03-15 23:02:00,14.0,2.4,29.79,East,90,0.7,0.7,59,0.00,,,0.00,WUHU216HW,2013-03-16 07:02:00,
2013-03-15 23:07:00,13.7,2.0,29.79,East,90,0.0,0.7,59,0.00,,,0.00,WUHU216HW,2013-03-16 07:07:00,
2013-03-15 23:12:00,13.5,1.8,29.80,East,90,0.0,0.7,59,0.00,,,0.00,WUHU216HW,2013-03-16 07:12:00,
2013-03-15 23:17:00,13.1,1.8,29.80,ENE,68,0.7,1.6,60,0.00,,,0.00,WUHU216HW,2013-03-16 07:17:00,
2013-03-15 23:22:00,13.0,1.6,29.80,ENE,68,0.4,1.8,60,0.00,,,0.00,WUHU216HW,2013-03-16 07:22:00,
2013-03-15 23:27:00,12.8,1.4,29.80,ENE,68,1.1,1.8,60,0.00,,,0.00,WUHU216HW,2013-03-16 07:27:00,
2013-03-15 23:32:00,12.6,1.3,29.80,ENE,68,0.9,1.1,60,0.00,,,0.00,WUHU216HW,2013-03-16 07:32:00,
2013-03-15 23:37:00,12.4,1.5,29.80,East,90,0.7,1.1,61,0.00,,,0.00,WUHU216HW,2013-03-16 07:37:00,
2013-03-15 23:42:00,12.1,1.1,29.80,ESE,113,0.7,1.3,61,0.00,,,0.00,WUHU216HW,2013-03-16 07:42:00,
2013-03-15 23:47:00,11.9,0.9,29.80,ESE,113,0.4,1.3,61,0.00,,,0.00,WUHU216HW,2013-03-16 07:47:00,
2013-03-15 23:52:00,11.5,0.6,29.80,ESE,113,0.0,0.7,61,0.00,,,0.00,WUHU216HW,2013-03-16 07:52:00,
2013-03-15 23:57:00,11.2,0.6,29.80,ESE,113,0.0,0.4,62,0.00,,,0.00,WUHU216HW,2013-03-16 07:57:00,